createdAt,value
2018-03-07T00:00:41.865Z,75.10
2018-03-07T00:03:12.233Z,91.00
2018-03-07T00:05:41.320Z,71.37
2018-03-07T00:08:11.016Z,74.13
2018-03-07T00:10:40.304Z,67.27
2018-03-07T00:13:09.375Z,75.40
2018-03-07T00:15:39.752Z,89.20
2018-03-07T00:18:09.394Z,76.30
2018-03-07T00:20:42.553Z,74.97
2018-03-07T00:23:11.658Z,62.27
2018-03-07T00:25:40.743Z,77.27
2018-03-07T00:28:09.879Z,78.97
2018-03-07T00:30:39.007Z,76.60
2018-03-07T00:33:08.440Z,73.83
2018-03-07T00:35:38.624Z,94.93
2018-03-07T00:38:08.422Z,124.40
2018-03-07T00:40:37.990Z,116.33
2018-03-07T00:43:07.076Z,107.47
2018-03-07T00:45:37.115Z,89.87
2018-03-07T00:48:06.225Z,106.23
2018-03-07T00:50:35.696Z,83.47
2018-03-07T00:53:05.467Z,89.33
2018-03-07T00:55:34.540Z,87.83
2018-03-07T00:58:03.641Z,89.23
2018-03-07T01:00:32.706Z,83.97
2018-03-07T01:03:01.881Z,77.30
2018-03-07T01:05:30.953Z,86.00
2018-03-07T01:08:00.068Z,81.90
2018-03-07T01:10:29.184Z,75.00
2018-03-07T01:12:58.281Z,71.10
2018-03-07T01:15:27.342Z,58.77
2018-03-07T01:17:56.412Z,64.33
2018-03-07T01:20:25.611Z,60.53
2018-03-07T01:22:55.219Z,52.10
2018-03-07T01:25:24.285Z,56.33
2018-03-07T01:27:53.361Z,51.60
2018-03-07T01:30:22.659Z,52.73
2018-03-07T01:32:51.738Z,51.27
2018-03-07T01:35:21.382Z,48.10
2018-03-07T01:37:50.514Z,47.80
2018-03-07T01:40:20.172Z,55.50
2018-03-07T01:42:49.668Z,53.67
2018-03-07T01:45:19.091Z,48.43
2018-03-07T01:47:48.154Z,51.50
2018-03-07T01:50:17.953Z,44.83
2018-03-07T01:52:47.800Z,54.90
2018-03-07T01:55:17.060Z,55.90
2018-03-07T01:57:46.581Z,54.33
2018-03-07T02:00:15.700Z,56.10
2018-03-07T02:02:44.831Z,49.03
2018-03-07T02:05:14.318Z,58.07
2018-03-07T02:07:43.408Z,54.60
2018-03-07T02:10:13.065Z,39.90
2018-03-07T02:12:42.188Z,47.30
2018-03-07T02:15:11.331Z,48.43
2018-03-07T02:17:40.549Z,48.03
2018-03-07T02:20:10.856Z,48.33
2018-03-07T02:22:40.525Z,51.23
2018-03-07T02:25:09.614Z,48.77
2018-03-07T02:27:38.986Z,54.47
2018-03-07T02:30:08.351Z,54.60
2018-03-07T02:32:39.014Z,60.60
2018-03-07T02:35:10.060Z,51.40
2018-03-07T02:37:39.155Z,55.00
2018-03-07T02:40:09.043Z,54.77
2018-03-07T02:42:38.761Z,54.23
2018-03-07T02:45:08.528Z,46.37
2018-03-07T02:47:38.486Z,49.37
2018-03-07T02:50:08.649Z,45.90
2018-03-07T02:52:37.899Z,43.83
2018-03-07T02:55:07.990Z,46.20
2018-03-07T02:57:39.132Z,49.43
2018-03-07T03:00:08.522Z,44.53
2018-03-07T03:02:38.714Z,52.37
2018-03-07T03:05:08.951Z,50.37
2018-03-07T03:07:39.119Z,54.80
2018-03-07T03:10:08.860Z,49.23
2018-03-07T03:12:38.967Z,56.53
2018-03-07T03:15:08.035Z,51.97
2018-03-07T03:17:37.779Z,48.33
2018-03-07T03:20:06.858Z,45.40
2018-03-07T03:22:36.259Z,52.70
2018-03-07T03:25:05.363Z,53.67
2018-03-07T03:27:34.695Z,42.70
2018-03-07T03:30:04.569Z,44.40
2018-03-07T03:32:34.406Z,39.57
2018-03-07T03:35:03.470Z,39.57
2018-03-07T03:37:32.578Z,35.93
2018-03-07T03:40:01.685Z,42.77
2018-03-07T03:42:30.740Z,46.13
2018-03-07T03:44:59.840Z,40.30
2018-03-07T03:47:28.910Z,43.47
2018-03-07T03:49:59.163Z,45.97
2018-03-07T03:52:29.599Z,65.63
2018-03-07T03:54:58.741Z,45.43
2018-03-07T03:57:28.525Z,40.17
2018-03-07T03:59:57.587Z,36.17
2018-03-07T04:02:26.750Z,38.90
2018-03-07T04:04:55.816Z,39.23
2018-03-07T04:07:24.879Z,37.87
2018-03-07T04:09:55.133Z,41.93
2018-03-07T04:12:24.203Z,40.07
2018-03-07T04:14:53.283Z,44.07
2018-03-07T04:17:22.352Z,35.87
2018-03-07T04:19:51.557Z,39.43
2018-03-07T04:22:20.651Z,39.60
2018-03-07T04:24:50.198Z,37.83
2018-03-07T04:27:19.381Z,44.17
2018-03-07T04:29:48.451Z,38.93
2018-03-07T04:32:17.522Z,38.80
2018-03-07T04:34:46.591Z,41.90
2018-03-07T04:37:15.656Z,36.93
2018-03-07T04:39:44.734Z,39.23
2018-03-07T04:42:13.907Z,44.23
2018-03-07T04:44:43.578Z,39.83
2018-03-07T04:47:14.376Z,41.13
2018-03-07T04:49:44.444Z,38.43
2018-03-07T04:52:13.510Z,36.33
2018-03-07T04:54:42.755Z,40.27
2018-03-07T04:57:12.798Z,34.93
2018-03-07T04:59:42.060Z,35.43
2018-03-07T05:02:11.212Z,41.53
2018-03-07T05:04:40.851Z,41.37
2018-03-07T05:07:10.586Z,43.27
2018-03-07T05:09:39.648Z,39.60
2018-03-07T05:12:08.740Z,38.10
2018-03-07T05:14:38.073Z,40.23
2018-03-07T05:17:07.372Z,45.63
2018-03-07T05:19:36.435Z,43.37
2018-03-07T05:22:06.288Z,46.73
2018-03-07T05:24:35.350Z,50.27
2018-03-07T05:27:04.763Z,44.67
2018-03-07T05:29:34.123Z,40.63
2018-03-07T05:32:03.254Z,40.83
2018-03-07T05:34:32.310Z,38.00
2018-03-07T05:37:01.429Z,44.67
2018-03-07T05:39:30.699Z,34.10
2018-03-07T05:41:59.764Z,39.23
2018-03-07T05:44:29.388Z,39.90
2018-03-07T05:46:59.532Z,37.77
2018-03-07T05:49:29.098Z,42.40
2018-03-07T05:51:59.753Z,34.87
2018-03-07T05:54:28.834Z,43.93
2018-03-07T05:56:58.593Z,48.27
2018-03-07T05:59:27.659Z,42.43
2018-03-07T06:01:57.578Z,41.27
2018-03-07T06:04:26.754Z,44.37
2018-03-07T06:06:56.982Z,40.07
2018-03-07T06:09:26.904Z,52.50
2018-03-07T06:11:56.626Z,43.17
2018-03-07T06:14:25.876Z,40.03
2018-03-07T06:16:55.115Z,38.27
2018-03-07T06:19:24.550Z,39.00
2018-03-07T06:21:53.707Z,45.87
2018-03-07T06:24:22.919Z,131.53
2018-03-07T06:26:51.995Z,86.37
2018-03-07T06:29:21.597Z,41.87
2018-03-07T06:31:50.943Z,46.23
2018-03-07T06:34:20.247Z,43.63
2018-03-07T06:36:49.728Z,41.47
2018-03-07T06:39:19.147Z,40.00
2018-03-07T06:41:48.609Z,35.60
2018-03-07T06:44:18.290Z,38.63
2018-03-07T06:46:48.717Z,48.07
2018-03-07T06:49:18.630Z,47.63
2018-03-07T06:51:47.787Z,46.67
2018-03-07T06:54:16.987Z,50.97
2018-03-07T06:56:47.031Z,46.27
2018-03-07T06:59:16.268Z,39.77
2018-03-07T07:01:46.404Z,39.37
2018-03-07T07:04:15.466Z,40.97
2018-03-07T07:06:45.078Z,44.47
2018-03-07T07:09:14.729Z,41.97
2018-03-07T07:11:43.923Z,42.53
2018-03-07T07:14:13.016Z,36.23
2018-03-07T07:16:42.261Z,41.47
2018-03-07T07:19:11.691Z,38.77
2018-03-07T07:21:40.882Z,43.03
2018-03-07T07:24:10.300Z,53.67
2018-03-07T07:26:40.023Z,65.33
2018-03-07T07:29:09.166Z,47.37
2018-03-07T07:31:38.239Z,38.30
2018-03-07T07:34:08.988Z,42.90
2018-03-07T07:36:38.262Z,41.80
2018-03-07T07:39:07.616Z,38.73
2018-03-07T07:41:36.802Z,38.13
2018-03-07T07:44:06.574Z,28.80
2018-03-07T07:46:35.722Z,35.60
2018-03-07T07:49:05.060Z,39.30
2018-03-07T07:51:34.295Z,42.17
2018-03-07T07:54:03.369Z,40.47
2018-03-07T07:56:32.609Z,46.77
2018-03-07T07:59:01.817Z,36.43
2018-03-07T08:01:31.798Z,53.77
2018-03-07T08:04:01.831Z,52.17
2018-03-07T08:06:31.473Z,39.90
2018-03-07T08:09:00.694Z,39.57
2018-03-07T08:11:30.514Z,42.27
2018-03-07T08:13:59.814Z,52.23
2018-03-07T08:16:29.802Z,59.10
2018-03-07T08:18:58.907Z,36.93
2018-03-07T08:21:28.377Z,39.57
2018-03-07T08:23:57.446Z,37.40
2018-03-07T08:26:26.939Z,41.47
2018-03-07T08:28:56.130Z,42.90
2018-03-07T08:31:25.422Z,40.77
2018-03-07T08:33:55.829Z,38.63
2018-03-07T08:36:25.559Z,43.80
2018-03-07T08:38:54.945Z,42.53
2018-03-07T08:41:24.594Z,33.53
2018-03-07T08:43:54.074Z,37.93
2018-03-07T08:46:24.140Z,38.27
2018-03-07T08:48:53.950Z,38.43
2018-03-07T08:51:23.663Z,35.67
2018-03-07T08:53:52.740Z,33.63
2018-03-07T08:56:22.021Z,44.67
2018-03-07T08:58:52.468Z,33.10
2018-03-07T09:01:21.537Z,36.23
2018-03-07T09:03:51.095Z,37.97
2018-03-07T09:06:21.414Z,37.33
2018-03-07T09:08:51.677Z,38.80
2018-03-07T09:11:21.364Z,43.57
2018-03-07T09:13:51.004Z,37.53
2018-03-07T09:16:20.118Z,42.10
2018-03-07T09:18:49.371Z,40.30
2018-03-07T09:21:19.015Z,35.13
2018-03-07T09:23:48.156Z,38.70
2018-03-07T09:26:17.264Z,33.20
2018-03-07T09:28:46.473Z,38.00
2018-03-07T09:31:15.940Z,38.63
2018-03-07T09:33:45.208Z,35.00
2018-03-07T09:36:15.034Z,37.10
2018-03-07T09:38:45.019Z,28.70
2018-03-07T09:41:14.130Z,38.63
2018-03-07T09:43:43.207Z,34.57
2018-03-07T09:46:12.408Z,39.67
2018-03-07T09:48:41.470Z,42.57
2018-03-07T09:51:10.610Z,35.97
2018-03-07T09:53:39.728Z,37.10
2018-03-07T09:56:08.834Z,39.77
2018-03-07T09:58:37.946Z,34.83
2018-03-07T10:01:07.214Z,37.50
2018-03-07T10:03:36.289Z,39.07
2018-03-07T10:06:05.486Z,46.03
2018-03-07T10:08:34.691Z,47.20
2018-03-07T10:11:03.975Z,42.23
2018-03-07T10:13:33.458Z,47.47
2018-03-07T10:16:02.994Z,41.73
2018-03-07T10:18:32.450Z,34.93
2018-03-07T10:21:01.812Z,45.60
2018-03-07T10:23:30.884Z,38.97
2018-03-07T10:26:00.383Z,53.27
2018-03-07T10:28:29.907Z,48.27
2018-03-07T10:30:59.060Z,52.17
2018-03-07T10:33:28.649Z,54.80
2018-03-07T10:35:57.832Z,52.07
2018-03-07T10:38:27.081Z,50.60
2018-03-07T10:40:56.625Z,60.53
2018-03-07T10:43:26.337Z,52.07
2018-03-07T10:45:57.300Z,58.87
2018-03-07T10:48:26.499Z,52.70
2018-03-07T10:50:55.646Z,50.47
2018-03-07T10:53:25.004Z,45.93
2018-03-07T10:55:54.501Z,50.03
2018-03-07T10:58:24.007Z,46.53
2018-03-07T11:00:54.065Z,48.30
2018-03-07T11:03:23.430Z,46.83
2018-03-07T11:05:52.586Z,43.20
2018-03-07T11:08:21.764Z,49.27
2018-03-07T11:10:50.963Z,46.50
2018-03-07T11:13:20.530Z,46.43
2018-03-07T11:15:49.608Z,45.23
2018-03-07T11:18:19.382Z,44.93
2018-03-07T11:20:49.107Z,47.00
2018-03-07T11:23:18.766Z,50.23
2018-03-07T11:25:48.190Z,42.57
2018-03-07T11:28:17.255Z,45.33
2018-03-07T11:30:46.343Z,42.97
2018-03-07T11:33:15.972Z,46.60
2018-03-07T11:35:45.189Z,43.53
2018-03-07T11:38:14.926Z,44.37
2018-03-07T11:40:45.636Z,41.47
2018-03-07T11:43:14.843Z,42.70
2018-03-07T11:45:44.640Z,46.67
2018-03-07T11:48:15.277Z,50.03
2018-03-07T11:50:44.397Z,44.10
2018-03-07T11:53:13.474Z,40.13
2018-03-07T11:55:42.534Z,50.03
2018-03-07T11:58:12.440Z,46.53
2018-03-07T12:00:41.821Z,51.27
2018-03-07T12:03:11.000Z,48.17
2018-03-07T12:05:40.279Z,51.83
2018-03-07T12:08:09.547Z,43.70
2018-03-07T12:10:38.825Z,43.87
2018-03-07T12:13:07.898Z,48.50
2018-03-07T12:15:36.979Z,54.07
2018-03-07T12:18:06.042Z,57.10
2018-03-07T12:20:35.108Z,41.40
2018-03-07T12:23:04.188Z,50.97
2018-03-07T12:25:33.259Z,49.83
2018-03-07T12:28:04.540Z,46.67
2018-03-07T12:30:33.611Z,43.50
2018-03-07T12:33:02.750Z,43.93
2018-03-07T12:35:31.875Z,45.97
2018-03-07T12:38:01.027Z,47.80
2018-03-07T12:40:30.167Z,51.43
2018-03-07T12:42:59.485Z,39.83
2018-03-07T12:45:28.571Z,48.63
2018-03-07T12:47:57.658Z,47.07
2018-03-07T12:50:26.725Z,49.07
2018-03-07T12:52:55.813Z,45.17
2018-03-07T12:55:24.879Z,44.00
2018-03-07T12:57:53.954Z,48.00
2018-03-07T13:00:23.023Z,53.17
2018-03-07T13:02:52.106Z,55.20
2018-03-07T13:05:21.182Z,50.10
2018-03-07T13:07:50.316Z,58.17
2018-03-07T13:10:19.972Z,47.37
2018-03-07T13:12:49.052Z,49.83
2018-03-07T13:15:18.124Z,46.20
2018-03-07T13:17:47.630Z,47.13
2018-03-07T13:20:17.055Z,46.00
2018-03-07T13:22:46.354Z,44.37
2018-03-07T13:25:15.491Z,49.67
2018-03-07T13:27:44.562Z,44.70
2018-03-07T13:30:13.663Z,45.57
2018-03-07T13:32:42.727Z,46.47
2018-03-07T13:35:11.874Z,53.43
2018-03-07T13:37:40.946Z,66.97
2018-03-07T13:40:10.021Z,47.17
2018-03-07T13:42:39.463Z,51.67
2018-03-07T13:45:08.525Z,45.13
2018-03-07T13:47:38.094Z,54.70
2018-03-07T13:50:07.168Z,52.80
2018-03-07T13:52:38.393Z,53.87
2018-03-07T13:55:07.576Z,56.50
2018-03-07T13:57:36.665Z,54.20
2018-03-07T14:00:23.209Z,54.00
2018-03-07T14:02:52.275Z,45.33
2018-03-07T14:05:23.020Z,51.50
2018-03-07T14:07:55.483Z,47.23
2018-03-07T14:10:29.015Z,50.17
2018-03-07T14:12:58.334Z,51.50
2018-03-07T14:15:27.454Z,81.13
2018-03-07T14:17:56.539Z,54.20
2018-03-07T14:20:25.755Z,54.53
2018-03-07T14:22:54.827Z,52.23
2018-03-07T14:25:23.899Z,59.50
2018-03-07T14:27:53.044Z,64.47
2018-03-07T14:30:22.372Z,55.77
2018-03-07T14:32:51.507Z,64.30
2018-03-07T14:35:20.570Z,64.23
2018-03-07T14:37:50.082Z,58.40
2018-03-07T14:40:19.254Z,58.20
2018-03-07T14:42:48.318Z,62.70
2018-03-07T14:45:17.387Z,56.67
2018-03-07T14:47:46.504Z,59.43
2018-03-07T14:50:15.571Z,59.50
2018-03-07T14:52:44.653Z,56.00
2018-03-07T14:55:13.785Z,60.50
2018-03-07T14:57:42.850Z,58.27
2018-03-07T15:00:11.919Z,73.97
2018-03-07T15:02:40.983Z,72.73
2018-03-07T15:05:10.077Z,65.43
2018-03-07T15:07:39.168Z,54.60
2018-03-07T15:10:08.600Z,58.33
2018-03-07T15:12:37.693Z,58.47
2018-03-07T15:15:06.983Z,117.83
2018-03-07T15:17:36.055Z,60.63
2018-03-07T15:20:06.654Z,61.97
2018-03-07T15:22:35.859Z,59.43
2018-03-07T15:25:05.093Z,54.43
2018-03-07T15:27:34.214Z,62.70
2018-03-07T15:30:04.912Z,60.93
2018-03-07T15:32:34.014Z,64.67
2018-03-07T15:35:08.852Z,65.87
2018-03-07T15:37:37.890Z,63.00
2018-03-07T15:40:08.577Z,70.60
2018-03-07T15:42:37.822Z,78.30
2018-03-07T15:45:06.899Z,64.67
2018-03-07T15:47:36.407Z,75.87
2018-03-07T15:50:05.479Z,70.27
2018-03-07T15:52:34.581Z,73.77
2018-03-07T15:55:03.825Z,76.60
2018-03-07T15:57:32.941Z,77.30
2018-03-07T16:00:02.000Z,75.63
2018-03-07T16:02:31.078Z,73.63
2018-03-07T16:05:00.176Z,81.30
2018-03-07T16:07:29.253Z,80.97
2018-03-07T16:09:58.325Z,85.17
2018-03-07T16:12:27.386Z,85.07
2018-03-07T16:14:56.451Z,91.20
2018-03-07T16:17:26.142Z,89.87
2018-03-07T16:19:55.517Z,94.50
2018-03-07T16:22:24.582Z,77.20
2018-03-07T16:24:53.668Z,71.63
2018-03-07T16:27:23.272Z,76.33
2018-03-07T16:29:52.948Z,78.77
2018-03-07T16:32:22.137Z,77.43
2018-03-07T16:34:51.463Z,82.57
2018-03-07T16:37:20.536Z,76.27
2018-03-07T16:39:49.641Z,82.90
2018-03-07T16:42:18.746Z,85.70
2018-03-07T16:44:47.883Z,87.63
2018-03-07T16:47:17.244Z,81.50
2018-03-07T16:49:46.338Z,78.10
2018-03-07T16:52:15.476Z,87.70
2018-03-07T16:54:44.638Z,89.83
2018-03-07T16:57:13.716Z,80.00
2018-03-07T16:59:42.792Z,103.47
2018-03-07T17:02:11.951Z,98.27
2018-03-07T17:04:41.677Z,84.90
2018-03-07T17:07:10.883Z,104.57
2018-03-07T17:09:39.978Z,113.83
2018-03-07T17:12:09.398Z,100.07
2018-03-07T17:14:38.473Z,97.07
2018-03-07T17:17:07.732Z,121.60
2018-03-07T17:19:37.130Z,126.23
2018-03-07T17:22:06.318Z,116.43
2018-03-07T17:24:35.650Z,118.80
2018-03-07T17:27:04.831Z,137.80
2018-03-07T17:29:34.600Z,123.27
2018-03-07T17:32:03.972Z,121.17
2018-03-07T17:34:33.123Z,116.93
2018-03-07T17:37:03.261Z,107.53
2018-03-07T17:39:32.598Z,110.57
2018-03-07T17:42:02.814Z,112.77
2018-03-07T17:44:32.173Z,114.90
2018-03-07T17:47:02.043Z,113.07
2018-03-07T17:49:31.246Z,132.07
2018-03-07T17:52:00.432Z,133.17
2018-03-07T17:54:29.871Z,122.83
2018-03-07T17:56:59.050Z,115.20
2018-03-07T17:59:32.760Z,113.50
2018-03-07T18:02:02.243Z,121.20
2018-03-07T18:04:31.647Z,140.87
2018-03-07T18:07:01.517Z,132.10
2018-03-07T18:09:31.760Z,135.37
2018-03-07T18:12:00.951Z,113.53
2018-03-07T18:14:30.166Z,119.17
2018-03-07T18:16:59.424Z,114.83
2018-03-07T18:19:29.394Z,106.73
2018-03-07T18:21:58.503Z,110.40
2018-03-07T18:24:27.607Z,113.80
2018-03-07T18:26:56.685Z,120.13
2018-03-07T18:29:25.879Z,114.83
2018-03-07T18:31:55.208Z,99.80
2018-03-07T18:34:24.549Z,132.70
2018-03-07T18:36:53.986Z,124.80
2018-03-07T18:39:25.181Z,115.97
2018-03-07T18:41:54.283Z,121.90
2018-03-07T18:44:24.117Z,118.33
2018-03-07T18:46:54.305Z,188.60
2018-03-07T18:49:23.840Z,129.60
2018-03-07T18:51:53.788Z,119.20
2018-03-07T18:54:22.910Z,134.37
2018-03-07T18:56:52.031Z,139.03
2018-03-07T18:59:21.814Z,134.77
2018-03-07T19:01:50.896Z,127.27
2018-03-07T19:04:19.976Z,128.50
2018-03-07T19:06:50.393Z,135.13
2018-03-07T19:09:19.975Z,142.07
2018-03-07T19:11:49.062Z,150.77
2018-03-07T19:14:18.146Z,147.90
2018-03-07T19:16:47.247Z,161.17
2018-03-07T19:19:16.367Z,159.47
2018-03-07T19:21:45.564Z,148.93
2018-03-07T19:24:15.435Z,160.90
2018-03-07T19:26:45.102Z,159.50
2018-03-07T19:29:14.787Z,158.97
2018-03-07T19:31:43.973Z,149.93
2018-03-07T19:34:13.353Z,175.87
2018-03-07T19:36:45.926Z,170.07
2018-03-07T19:39:24.405Z,174.33
2018-03-07T19:41:55.298Z,165.20
2018-03-07T19:44:24.512Z,169.27
2018-03-07T19:46:55.034Z,175.13
2018-03-07T19:49:24.370Z,188.37
2018-03-07T19:51:53.534Z,194.50
2018-03-07T19:54:23.220Z,184.07
2018-03-07T19:56:53.297Z,200.70
2018-03-07T19:59:23.280Z,219.37
2018-03-07T20:01:52.931Z,195.23
2018-03-07T20:04:22.117Z,229.90
2018-03-07T20:06:51.488Z,207.77
2018-03-07T20:09:20.658Z,197.10
2018-03-07T20:11:49.862Z,244.43
2018-03-07T20:14:19.247Z,194.50
2018-03-07T20:16:48.978Z,216.93
2018-03-07T20:19:18.493Z,210.43
2018-03-07T20:21:47.775Z,235.67
2018-03-07T20:24:16.910Z,272.43
2018-03-07T20:26:47.405Z,220.23
2018-03-07T20:29:16.691Z,342.33
2018-03-07T20:31:46.868Z,225.97
2018-03-07T20:34:16.016Z,302.03
2018-03-07T20:36:45.163Z,280.80
2018-03-07T20:39:14.238Z,237.50
2018-03-07T20:41:43.310Z,210.93
2018-03-07T20:44:12.543Z,200.17
2018-03-07T20:46:42.253Z,181.27
2018-03-07T20:49:13.604Z,218.60
2018-03-07T20:51:42.793Z,224.60
2018-03-07T20:54:11.918Z,286.07
2018-03-07T20:56:41.122Z,292.57
2018-03-07T20:59:10.597Z,302.97
2018-03-07T21:01:39.975Z,244.70
2018-03-07T21:04:09.170Z,260.87
2018-03-07T21:06:39.527Z,244.90
2018-03-07T21:09:08.611Z,244.73
2018-03-07T21:11:37.991Z,301.53
2018-03-07T21:14:07.098Z,213.37
2018-03-07T21:16:36.509Z,183.70
2018-03-07T21:19:05.906Z,202.63
2018-03-07T21:21:37.062Z,214.07
2018-03-07T21:24:07.668Z,233.33
2018-03-07T21:26:37.545Z,206.87
2018-03-07T21:29:06.731Z,188.87
2018-03-07T21:31:36.666Z,222.23
2018-03-07T21:34:05.798Z,214.20
2018-03-07T21:36:34.898Z,191.07
2018-03-07T21:39:04.078Z,196.00
2018-03-07T21:41:34.052Z,213.37
2018-03-07T21:44:03.371Z,207.57
2018-03-07T21:46:32.459Z,247.60
2018-03-07T21:49:01.553Z,188.53
2018-03-07T21:51:30.963Z,207.50
2018-03-07T21:54:00.298Z,203.47
2018-03-07T21:56:29.366Z,221.67
2018-03-07T21:58:58.859Z,204.57
2018-03-07T22:01:28.103Z,204.50
2018-03-07T22:03:58.124Z,237.27
2018-03-07T22:06:27.704Z,212.43
2018-03-07T22:08:57.822Z,176.50
2018-03-07T22:11:26.940Z,220.83
2018-03-07T22:13:56.013Z,202.97
2018-03-07T22:16:25.524Z,211.67
2018-03-07T22:18:54.723Z,215.83
2018-03-07T22:21:23.818Z,193.10
2018-03-07T22:23:52.891Z,177.53
2018-03-07T22:26:22.030Z,218.03
2018-03-07T22:28:51.106Z,165.83
2018-03-07T22:31:20.368Z,220.60
2018-03-07T22:33:49.720Z,191.53
2018-03-07T22:36:18.944Z,200.07
2018-03-07T22:38:48.013Z,177.53
2018-03-07T22:41:17.095Z,171.80
2018-03-07T22:43:46.225Z,171.50
2018-03-07T22:46:15.302Z,190.20
2018-03-07T22:48:44.375Z,165.73
2018-03-07T22:51:13.448Z,168.00
2018-03-07T22:53:42.793Z,162.57
2018-03-07T22:56:11.863Z,148.27
2018-03-07T22:58:41.023Z,164.80
2018-03-07T23:01:10.101Z,144.17
2018-03-07T23:03:39.186Z,142.17
2018-03-07T23:06:08.308Z,145.80
2018-03-07T23:08:37.743Z,148.80
2018-03-07T23:11:06.950Z,139.83
2018-03-07T23:13:36.053Z,145.47
2018-03-07T23:16:05.655Z,129.13
2018-03-07T23:18:34.870Z,142.70
2018-03-07T23:21:03.995Z,147.07
2018-03-07T23:23:33.108Z,129.67
2018-03-07T23:26:02.182Z,157.23
2018-03-07T23:28:31.922Z,149.90
2018-03-07T23:31:00.994Z,149.40
2018-03-07T23:33:30.070Z,146.80
2018-03-07T23:35:59.150Z,144.17
2018-03-07T23:38:28.245Z,168.83
2018-03-07T23:40:57.323Z,160.07
2018-03-07T23:43:26.402Z,164.23
2018-03-07T23:45:55.482Z,141.93
2018-03-07T23:48:24.556Z,170.13
2018-03-07T23:50:53.659Z,166.23
2018-03-07T23:53:22.806Z,150.13
2018-03-07T23:55:52.114Z,157.60
2018-03-07T23:58:21.299Z,165.63
